sensor_id;sensor_type;location;lat;lon;timestamp;temperature;humidity
76785;SHT30;66893;44.316;0.092;2023-12-22T00:01:21;16.24;65.89
76785;SHT30;66893;44.316;0.092;2023-12-22T00:03:46;16.22;65.97
76785;SHT30;66893;44.316;0.092;2023-12-22T00:06:12;16.22;65.93
76785;SHT30;66893;44.316;0.092;2023-12-22T00:08:38;16.25;65.91
76785;SHT30;66893;44.316;0.092;2023-12-22T00:11:03;16.24;65.95
76785;SHT30;66893;44.316;0.092;2023-12-22T00:13:29;16.27;65.89
76785;SHT30;66893;44.316;0.092;2023-12-22T00:15:54;16.27;65.91
76785;SHT30;66893;44.316;0.092;2023-12-22T00:18:20;16.25;65.92
76785;SHT30;66893;44.316;0.092;2023-12-22T00:20:46;16.24;65.88
76785;SHT30;66893;44.316;0.092;2023-12-22T00:23:11;16.24;65.91
76785;SHT30;66893;44.316;0.092;2023-12-22T00:25:36;16.25;65.91
76785;SHT30;66893;44.316;0.092;2023-12-22T00:28:02;16.27;65.85
76785;SHT30;66893;44.316;0.092;2023-12-22T00:30:27;16.25;65.89
76785;SHT30;66893;44.316;0.092;2023-12-22T00:32:53;16.25;65.92
76785;SHT30;66893;44.316;0.092;2023-12-22T00:35:18;16.24;65.92
76785;SHT30;66893;44.316;0.092;2023-12-22T00:37:43;16.25;65.86
76785;SHT30;66893;44.316;0.092;2023-12-22T00:40:09;16.25;65.87
76785;SHT30;66893;44.316;0.092;2023-12-22T00:42:35;16.27;65.88
76785;SHT30;66893;44.316;0.092;2023-12-22T00:45:01;16.25;65.83
76785;SHT30;66893;44.316;0.092;2023-12-22T00:47:27;16.27;65.82
76785;SHT30;66893;44.316;0.092;2023-12-22T00:49:52;16.27;65.80
76785;SHT30;66893;44.316;0.092;2023-12-22T00:52:18;16.27;65.82
76785;SHT30;66893;44.316;0.092;2023-12-22T00:54:43;16.28;65.77
76785;SHT30;66893;44.316;0.092;2023-12-22T00:57:08;16.25;65.80
76785;SHT30;66893;44.316;0.092;2023-12-22T00:59:34;16.25;65.82
76785;SHT30;66893;44.316;0.092;2023-12-22T01:01:59;16.27;65.80
76785;SHT30;66893;44.316;0.092;2023-12-22T01:04:25;16.27;65.79
76785;SHT30;66893;44.316;0.092;2023-12-22T01:06:50;16.27;65.79
76785;SHT30;66893;44.316;0.092;2023-12-22T01:09:16;16.27;65.82
76785;SHT30;66893;44.316;0.092;2023-12-22T01:11:41;16.27;65.85
76785;SHT30;66893;44.316;0.092;2023-12-22T01:14:07;16.27;65.79
76785;SHT30;66893;44.316;0.092;2023-12-22T01:16:33;16.27;65.78
76785;SHT30;66893;44.316;0.092;2023-12-22T01:18:58;16.25;65.76
76785;SHT30;66893;44.316;0.092;2023-12-22T01:21:23;16.27;65.81
76785;SHT30;66893;44.316;0.092;2023-12-22T01:23:49;16.25;65.77
76785;SHT30;66893;44.316;0.092;2023-12-22T01:26:14;16.28;65.78
76785;SHT30;66893;44.316;0.092;2023-12-22T01:28:40;16.27;65.81
76785;SHT30;66893;44.316;0.092;2023-12-22T01:31:05;16.27;65.81
76785;SHT30;66893;44.316;0.092;2023-12-22T01:33:30;16.27;65.88
76785;SHT30;66893;44.316;0.092;2023-12-22T01:35:56;16.27;65.85
76785;SHT30;66893;44.316;0.092;2023-12-22T01:38:21;16.27;65.85
76785;SHT30;66893;44.316;0.092;2023-12-22T01:40:47;16.27;65.82
76785;SHT30;66893;44.316;0.092;2023-12-22T01:43:12;16.28;65.80
76785;SHT30;66893;44.316;0.092;2023-12-22T01:45:54;16.27;65.88
76785;SHT30;66893;44.316;0.092;2023-12-22T01:48:21;16.25;65.77
76785;SHT30;66893;44.316;0.092;2023-12-22T01:50:49;16.28;65.85
76785;SHT30;66893;44.316;0.092;2023-12-22T01:53:16;16.28;65.81
76785;SHT30;66893;44.316;0.092;2023-12-22T01:55:42;16.27;65.83
76785;SHT30;66893;44.316;0.092;2023-12-22T01:58:07;16.28;65.87
76785;SHT30;66893;44.316;0.092;2023-12-22T02:00:33;16.27;65.86
76785;SHT30;66893;44.316;0.092;2023-12-22T02:02:59;16.28;65.83
76785;SHT30;66893;44.316;0.092;2023-12-22T02:05:24;16.27;65.82
76785;SHT30;66893;44.316;0.092;2023-12-22T02:07:50;16.27;65.80
76785;SHT30;66893;44.316;0.092;2023-12-22T02:10:15;16.25;65.80
76785;SHT30;66893;44.316;0.092;2023-12-22T02:12:42;16.28;65.78
76785;SHT30;66893;44.316;0.092;2023-12-22T02:15:08;16.30;65.75
76785;SHT30;66893;44.316;0.092;2023-12-22T02:17:55;16.28;65.74
76785;SHT30;66893;44.316;0.092;2023-12-22T02:20:24;16.30;65.68
76785;SHT30;66893;44.316;0.092;2023-12-22T02:22:53;16.31;65.67
76785;SHT30;66893;44.316;0.092;2023-12-22T02:25:18;16.30;65.71
76785;SHT30;66893;44.316;0.092;2023-12-22T02:27:53;16.28;65.72
76785;SHT30;66893;44.316;0.092;2023-12-22T02:30:50;16.28;65.66
76785;SHT30;66893;44.316;0.092;2023-12-22T02:33:18;16.31;65.68
76785;SHT30;66893;44.316;0.092;2023-12-22T02:35:44;16.31;65.66
76785;SHT30;66893;44.316;0.092;2023-12-22T02:38:12;16.31;65.57
76785;SHT30;66893;44.316;0.092;2023-12-22T02:40:38;16.31;65.57
76785;SHT30;66893;44.316;0.092;2023-12-22T02:43:05;16.32;65.58
76785;SHT30;66893;44.316;0.092;2023-12-22T02:45:31;16.28;65.54
76785;SHT30;66893;44.316;0.092;2023-12-22T02:47:57;16.31;65.56
76785;SHT30;66893;44.316;0.092;2023-12-22T02:50:23;16.31;65.53
76785;SHT30;66893;44.316;0.092;2023-12-22T02:52:48;16.30;65.54
76785;SHT30;66893;44.316;0.092;2023-12-22T02:55:13;16.31;65.55
76785;SHT30;66893;44.316;0.092;2023-12-22T02:57:39;16.31;65.57
76785;SHT30;66893;44.316;0.092;2023-12-22T03:00:05;16.31;65.53
76785;SHT30;66893;44.316;0.092;2023-12-22T03:02:30;16.30;65.52
76785;SHT30;66893;44.316;0.092;2023-12-22T03:04:56;16.30;65.54
76785;SHT30;66893;44.316;0.092;2023-12-22T03:07:21;16.31;65.55
76785;SHT30;66893;44.316;0.092;2023-12-22T03:09:46;16.31;65.55
76785;SHT30;66893;44.316;0.092;2023-12-22T03:12:12;16.31;65.53
76785;SHT30;66893;44.316;0.092;2023-12-22T03:14:38;16.28;65.51
76785;SHT30;66893;44.316;0.092;2023-12-22T03:17:05;16.30;65.48
76785;SHT30;66893;44.316;0.092;2023-12-22T03:19:31;16.31;65.53
76785;SHT30;66893;44.316;0.092;2023-12-22T03:21:57;16.30;65.53
76785;SHT30;66893;44.316;0.092;2023-12-22T03:24:23;16.30;65.58
76785;SHT30;66893;44.316;0.092;2023-12-22T03:26:49;16.32;65.55
76785;SHT30;66893;44.316;0.092;2023-12-22T03:29:15;16.31;65.54
76785;SHT30;66893;44.316;0.092;2023-12-22T03:31:40;16.31;65.51
76785;SHT30;66893;44.316;0.092;2023-12-22T03:34:06;16.31;65.54
76785;SHT30;66893;44.316;0.092;2023-12-22T03:36:32;16.31;65.48
76785;SHT30;66893;44.316;0.092;2023-12-22T03:38:57;16.31;65.45
76785;SHT30;66893;44.316;0.092;2023-12-22T03:41:23;16.31;65.44
76785;SHT30;66893;44.316;0.092;2023-12-22T03:43:48;16.32;65.41
76785;SHT30;66893;44.316;0.092;2023-12-22T03:46:14;16.32;65.40
76785;SHT30;66893;44.316;0.092;2023-12-22T03:48:39;16.32;65.39
76785;SHT30;66893;44.316;0.092;2023-12-22T03:51:05;16.35;65.41
76785;SHT30;66893;44.316;0.092;2023-12-22T03:53:30;16.30;65.43
76785;SHT30;66893;44.316;0.092;2023-12-22T03:55:56;16.34;65.42
76785;SHT30;66893;44.316;0.092;2023-12-22T03:58:21;16.31;65.43
76785;SHT30;66893;44.316;0.092;2023-12-22T04:00:46;16.31;65.44
76785;SHT30;66893;44.316;0.092;2023-12-22T04:03:12;16.28;65.44
76785;SHT30;66893;44.316;0.092;2023-12-22T04:05:38;16.30;65.38
76785;SHT30;66893;44.316;0.092;2023-12-22T04:08:04;16.32;65.38
76785;SHT30;66893;44.316;0.092;2023-12-22T04:10:29;16.34;65.39
76785;SHT30;66893;44.316;0.092;2023-12-22T04:12:55;16.31;65.34
76785;SHT30;66893;44.316;0.092;2023-12-22T04:15:20;16.34;65.31
76785;SHT30;66893;44.316;0.092;2023-12-22T04:17:46;16.34;65.30
76785;SHT30;66893;44.316;0.092;2023-12-22T04:20:11;16.34;65.25
76785;SHT30;66893;44.316;0.092;2023-12-22T04:22:37;16.35;65.28
76785;SHT30;66893;44.316;0.092;2023-12-22T04:25:03;16.32;65.23
76785;SHT30;66893;44.316;0.092;2023-12-22T04:27:28;16.30;65.22
76785;SHT30;66893;44.316;0.092;2023-12-22T04:29:54;16.32;65.22
76785;SHT30;66893;44.316;0.092;2023-12-22T04:32:19;16.31;65.17
76785;SHT30;66893;44.316;0.092;2023-12-22T04:34:44;16.34;65.22
76785;SHT30;66893;44.316;0.092;2023-12-22T04:37:10;16.34;65.13
76785;SHT30;66893;44.316;0.092;2023-12-22T04:39:35;16.32;65.06
76785;SHT30;66893;44.316;0.092;2023-12-22T04:42:01;16.31;65.12
76785;SHT30;66893;44.316;0.092;2023-12-22T04:44:26;16.34;65.12
76785;SHT30;66893;44.316;0.092;2023-12-22T04:46:51;16.34;65.07
76785;SHT30;66893;44.316;0.092;2023-12-22T04:49:17;16.32;65.12
76785;SHT30;66893;44.316;0.092;2023-12-22T04:51:43;16.34;65.10
76785;SHT30;66893;44.316;0.092;2023-12-22T04:54:08;16.32;65.07
76785;SHT30;66893;44.316;0.092;2023-12-22T04:56:34;16.32;65.04
76785;SHT30;66893;44.316;0.092;2023-12-22T04:58:59;16.30;65.06
76785;SHT30;66893;44.316;0.092;2023-12-22T05:01:25;16.30;65.08
76785;SHT30;66893;44.316;0.092;2023-12-22T05:03:50;16.30;65.08
76785;SHT30;66893;44.316;0.092;2023-12-22T05:06:16;16.32;65.04
76785;SHT30;66893;44.316;0.092;2023-12-22T05:08:42;16.32;65.04
76785;SHT30;66893;44.316;0.092;2023-12-22T05:11:07;16.32;65.08
76785;SHT30;66893;44.316;0.092;2023-12-22T05:13:32;16.32;65.09
76785;SHT30;66893;44.316;0.092;2023-12-22T05:15:58;16.32;65.05
76785;SHT30;66893;44.316;0.092;2023-12-22T05:18:24;16.31;65.01
76785;SHT30;66893;44.316;0.092;2023-12-22T05:20:49;16.31;65.01
76785;SHT30;66893;44.316;0.092;2023-12-22T05:23:15;16.31;65.01
76785;SHT30;66893;44.316;0.092;2023-12-22T05:25:41;16.31;65.06
76785;SHT30;66893;44.316;0.092;2023-12-22T05:28:06;16.30;65.07
76785;SHT30;66893;44.316;0.092;2023-12-22T05:30:32;16.31;65.07
76785;SHT30;66893;44.316;0.092;2023-12-22T05:32:57;16.32;65.02
76785;SHT30;66893;44.316;0.092;2023-12-22T05:35:22;16.34;65.08
76785;SHT30;66893;44.316;0.092;2023-12-22T05:37:48;16.32;64.99
76785;SHT30;66893;44.316;0.092;2023-12-22T05:40:13;16.31;65.01
76785;SHT30;66893;44.316;0.092;2023-12-22T05:42:39;16.34;65.01
76785;SHT30;66893;44.316;0.092;2023-12-22T05:45:05;16.35;65.04
76785;SHT30;66893;44.316;0.092;2023-12-22T05:47:32;16.32;65.02
76785;SHT30;66893;44.316;0.092;2023-12-22T05:49:57;16.34;65.06
76785;SHT30;66893;44.316;0.092;2023-12-22T05:52:23;16.34;65.04
76785;SHT30;66893;44.316;0.092;2023-12-22T05:54:48;16.34;64.98
76785;SHT30;66893;44.316;0.092;2023-12-22T05:57:13;16.32;65.05
76785;SHT30;66893;44.316;0.092;2023-12-22T05:59:39;16.30;64.98
76785;SHT30;66893;44.316;0.092;2023-12-22T06:02:04;16.34;64.99
76785;SHT30;66893;44.316;0.092;2023-12-22T06:04:30;16.34;64.95
76785;SHT30;66893;44.316;0.092;2023-12-22T06:06:56;16.31;64.97
76785;SHT30;66893;44.316;0.092;2023-12-22T06:09:21;16.34;64.95
76785;SHT30;66893;44.316;0.092;2023-12-22T06:11:47;16.34;64.97
76785;SHT30;66893;44.316;0.092;2023-12-22T06:14:13;16.34;64.88
76785;SHT30;66893;44.316;0.092;2023-12-22T06:16:39;16.35;64.94
76785;SHT30;66893;44.316;0.092;2023-12-22T06:19:04;16.35;64.88
76785;SHT30;66893;44.316;0.092;2023-12-22T06:21:30;16.35;64.85
76785;SHT30;66893;44.316;0.092;2023-12-22T06:23:55;16.38;64.76
76785;SHT30;66893;44.316;0.092;2023-12-22T06:26:22;16.38;64.76
76785;SHT30;66893;44.316;0.092;2023-12-22T06:28:48;16.37;64.82
76785;SHT30;66893;44.316;0.092;2023-12-22T06:31:20;16.38;64.80
76785;SHT30;66893;44.316;0.092;2023-12-22T06:33:47;16.40;64.81
76785;SHT30;66893;44.316;0.092;2023-12-22T06:36:23;16.38;64.76
76785;SHT30;66893;44.316;0.092;2023-12-22T06:38:52;16.41;64.76
76785;SHT30;66893;44.316;0.092;2023-12-22T06:41:21;16.40;64.80
76785;SHT30;66893;44.316;0.092;2023-12-22T06:43:47;16.41;65.00
76785;SHT30;66893;44.316;0.092;2023-12-22T06:46:16;16.38;65.25
76785;SHT30;66893;44.316;0.092;2023-12-22T06:48:41;16.37;65.40
76785;SHT30;66893;44.316;0.092;2023-12-22T06:51:07;16.37;65.44
76785;SHT30;66893;44.316;0.092;2023-12-22T06:53:32;16.37;65.45
76785;SHT30;66893;44.316;0.092;2023-12-22T06:55:58;16.38;65.43
76785;SHT30;66893;44.316;0.092;2023-12-22T06:58:23;16.38;65.43
76785;SHT30;66893;44.316;0.092;2023-12-22T07:00:51;16.38;65.42
76785;SHT30;66893;44.316;0.092;2023-12-22T07:03:17;16.38;65.37
76785;SHT30;66893;44.316;0.092;2023-12-22T09:17:29;16.65;67.69
76785;SHT30;66893;44.316;0.092;2023-12-22T09:19:54;16.68;67.62
76785;SHT30;66893;44.316;0.092;2023-12-22T09:22:20;16.68;67.54
76785;SHT30;66893;44.316;0.092;2023-12-22T09:39:32;16.61;66.64
76785;SHT30;66893;44.316;0.092;2023-12-22T09:41:57;16.65;66.73
76785;SHT30;66893;44.316;0.092;2023-12-22T09:44:24;16.65;66.59
76785;SHT30;66893;44.316;0.092;2023-12-22T09:46:50;16.68;66.53
76785;SHT30;66893;44.316;0.092;2023-12-22T09:49:18;16.71;66.41
76785;SHT30;66893;44.316;0.092;2023-12-22T09:51:44;16.68;66.36
76785;SHT30;66893;44.316;0.092;2023-12-22T09:54:11;16.71;66.31
76785;SHT30;66893;44.316;0.092;2023-12-22T09:56:37;16.71;66.26
76785;SHT30;66893;44.316;0.092;2023-12-22T09:59:13;16.72;66.20
76785;SHT30;66893;44.316;0.092;2023-12-22T10:01:43;16.75;66.08
76785;SHT30;66893;44.316;0.092;2023-12-22T10:04:13;16.76;65.99
76785;SHT30;66893;44.316;0.092;2023-12-22T10:06:38;16.76;66.00
76785;SHT30;66893;44.316;0.092;2023-12-22T10:09:05;16.79;65.97
76785;SHT30;66893;44.316;0.092;2023-12-22T10:11:32;16.80;65.98
76785;SHT30;66893;44.316;0.092;2023-12-22T10:14:00;16.86;65.86
76785;SHT30;66893;44.316;0.092;2023-12-22T10:16:27;16.89;65.79
76785;SHT30;66893;44.316;0.092;2023-12-22T10:18:53;16.92;65.82
76785;SHT30;66893;44.316;0.092;2023-12-22T10:21:19;16.89;65.77
76785;SHT30;66893;44.316;0.092;2023-12-22T10:23:44;16.89;65.77
76785;SHT30;66893;44.316;0.092;2023-12-22T10:26:12;16.95;65.67
76785;SHT30;66893;44.316;0.092;2023-12-22T10:28:38;16.93;65.59
76785;SHT30;66893;44.316;0.092;2023-12-22T10:31:03;16.97;65.64
76785;SHT30;66893;44.316;0.092;2023-12-22T10:33:32;16.97;65.58
76785;SHT30;66893;44.316;0.092;2023-12-22T10:36:00;16.99;65.49
76785;SHT30;66893;44.316;0.092;2023-12-22T10:38:34;17.00;65.44
76785;SHT30;66893;44.316;0.092;2023-12-22T10:41:01;17.02;65.37
76785;SHT30;66893;44.316;0.092;2023-12-22T10:43:27;17.02;65.36
76785;SHT30;66893;44.316;0.092;2023-12-22T10:45:52;17.04;65.31
76785;SHT30;66893;44.316;0.092;2023-12-22T10:48:18;17.06;65.25
76785;SHT30;66893;44.316;0.092;2023-12-22T10:50:44;17.06;65.23
76785;SHT30;66893;44.316;0.092;2023-12-22T10:53:13;17.07;65.12
76785;SHT30;66893;44.316;0.092;2023-12-22T10:55:39;17.07;65.04
76785;SHT30;66893;44.316;0.092;2023-12-22T10:58:05;17.10;64.91
76785;SHT30;66893;44.316;0.092;2023-12-22T11:00:32;17.10;64.93
76785;SHT30;66893;44.316;0.092;2023-12-22T11:03:01;17.13;64.91
76785;SHT30;66893;44.316;0.092;2023-12-22T11:05:29;17.13;64.87
76785;SHT30;66893;44.316;0.092;2023-12-22T11:07:59;17.17;64.83
76785;SHT30;66893;44.316;0.092;2023-12-22T11:10:27;17.20;64.74
76785;SHT30;66893;44.316;0.092;2023-12-22T11:12:57;17.21;64.73
76785;SHT30;66893;44.316;0.092;2023-12-22T11:15:24;17.21;64.81
76785;SHT30;66893;44.316;0.092;2023-12-22T11:17:51;17.24;64.75
76785;SHT30;66893;44.316;0.092;2023-12-22T11:20:17;17.28;64.72
76785;SHT30;66893;44.316;0.092;2023-12-22T11:22:43;17.31;64.66
76785;SHT30;66893;44.316;0.092;2023-12-22T11:25:10;17.34;64.49
76785;SHT30;66893;44.316;0.092;2023-12-22T11:27:37;17.35;64.57
76785;SHT30;66893;44.316;0.092;2023-12-22T11:30:04;17.35;64.44
76785;SHT30;66893;44.316;0.092;2023-12-22T11:32:33;17.35;64.37
76785;SHT30;66893;44.316;0.092;2023-12-22T11:34:59;17.34;64.36
76785;SHT30;66893;44.316;0.092;2023-12-22T11:37:25;17.35;64.37
76785;SHT30;66893;44.316;0.092;2023-12-22T11:39:50;17.38;64.30
76785;SHT30;66893;44.316;0.092;2023-12-22T11:42:22;17.44;64.26
76785;SHT30;66893;44.316;0.092;2023-12-22T11:44:48;17.44;64.12
76785;SHT30;66893;44.316;0.092;2023-12-22T11:47:14;17.48;64.18
76785;SHT30;66893;44.316;0.092;2023-12-22T11:49:40;17.51;64.27
76785;SHT30;66893;44.316;0.092;2023-12-22T11:52:16;17.54;64.30
76785;SHT30;66893;44.316;0.092;2023-12-22T11:54:50;17.58;64.33
76785;SHT30;66893;44.316;0.092;2023-12-22T11:57:38;17.58;64.40
76785;SHT30;66893;44.316;0.092;2023-12-22T12:00:07;17.62;64.51
76785;SHT30;66893;44.316;0.092;2023-12-22T12:02:34;17.61;64.62
76785;SHT30;66893;44.316;0.092;2023-12-22T12:05:01;17.61;64.65
76785;SHT30;66893;44.316;0.092;2023-12-22T12:13:09;17.68;64.81
76785;SHT30;66893;44.316;0.092;2023-12-22T12:15:36;17.68;64.84
76785;SHT30;66893;44.316;0.092;2023-12-22T12:18:03;17.68;64.91
76785;SHT30;66893;44.316;0.092;2023-12-22T12:20:28;17.68;64.92
76785;SHT30;66893;44.316;0.092;2023-12-22T12:22:54;17.72;64.96
76785;SHT30;66893;44.316;0.092;2023-12-22T12:25:23;17.78;64.94
76785;SHT30;66893;44.316;0.092;2023-12-22T12:28:11;17.81;64.88
76785;SHT30;66893;44.316;0.092;2023-12-22T12:30:38;17.86;64.87
76785;SHT30;66893;44.316;0.092;2023-12-22T12:35:33;17.95;64.91
76785;SHT30;66893;44.316;0.092;2023-12-22T12:37:59;18.00;64.86
76785;SHT30;66893;44.316;0.092;2023-12-22T12:40:27;18.09;64.80
76785;SHT30;66893;44.316;0.092;2023-12-22T12:42:55;18.20;64.73
76785;SHT30;66893;44.316;0.092;2023-12-22T12:45:24;18.29;64.62
76785;SHT30;66893;44.316;0.092;2023-12-22T12:48:00;18.34;64.55
76785;SHT30;66893;44.316;0.092;2023-12-22T12:50:26;18.36;64.59
76785;SHT30;66893;44.316;0.092;2023-12-22T12:52:53;18.36;64.59
76785;SHT30;66893;44.316;0.092;2023-12-22T12:55:20;18.38;64.59
76785;SHT30;66893;44.316;0.092;2023-12-22T12:57:50;18.38;64.52
76785;SHT30;66893;44.316;0.092;2023-12-22T13:00:25;18.36;64.49
76785;SHT30;66893;44.316;0.092;2023-12-22T13:02:53;18.40;64.47
76785;SHT30;66893;44.316;0.092;2023-12-22T13:05:23;18.41;64.40
76785;SHT30;66893;44.316;0.092;2023-12-22T13:07:49;18.47;64.37
76785;SHT30;66893;44.316;0.092;2023-12-22T13:10:25;18.50;64.27
76785;SHT30;66893;44.316;0.092;2023-12-22T13:12:54;18.51;64.25
76785;SHT30;66893;44.316;0.092;2023-12-22T13:15:20;18.54;64.21
76785;SHT30;66893;44.316;0.092;2023-12-22T13:17:49;18.59;64.20
76785;SHT30;66893;44.316;0.092;2023-12-22T13:20:15;18.57;64.15
76785;SHT30;66893;44.316;0.092;2023-12-22T13:22:40;18.64;64.15
76785;SHT30;66893;44.316;0.092;2023-12-22T13:25:06;18.71;64.14
76785;SHT30;66893;44.316;0.092;2023-12-22T13:27:44;18.73;64.04
76785;SHT30;66893;44.316;0.092;2023-12-22T13:30:10;18.75;64.02
76785;SHT30;66893;44.316;0.092;2023-12-22T13:32:35;18.73;63.98
76785;SHT30;66893;44.316;0.092;2023-12-22T13:35:01;18.69;63.96
76785;SHT30;66893;44.316;0.092;2023-12-22T13:37:27;18.71;63.94
76785;SHT30;66893;44.316;0.092;2023-12-22T13:39:55;18.68;63.92
76785;SHT30;66893;44.316;0.092;2023-12-22T13:42:21;18.65;63.95
76785;SHT30;66893;44.316;0.092;2023-12-22T13:44:48;18.67;64.00
76785;SHT30;66893;44.316;0.092;2023-12-22T13:47:20;18.67;64.01
76785;SHT30;66893;44.316;0.092;2023-12-22T13:49:46;18.68;64.06
76785;SHT30;66893;44.316;0.092;2023-12-22T13:52:28;18.69;64.07
76785;SHT30;66893;44.316;0.092;2023-12-22T13:54:53;18.69;64.09
76785;SHT30;66893;44.316;0.092;2023-12-22T13:57:22;18.71;64.13
76785;SHT30;66893;44.316;0.092;2023-12-22T13:59:48;18.71;63.94
76785;SHT30;66893;44.316;0.092;2023-12-22T14:02:16;18.67;63.60
76785;SHT30;66893;44.316;0.092;2023-12-22T14:04:42;18.61;63.30
76785;SHT30;66893;44.316;0.092;2023-12-22T14:07:07;18.54;63.17
76785;SHT30;66893;44.316;0.092;2023-12-22T14:09:33;18.47;63.07
76785;SHT30;66893;44.316;0.092;2023-12-22T14:11:59;18.43;62.95
76785;SHT30;66893;44.316;0.092;2023-12-22T14:14:24;18.45;62.91
76785;SHT30;66893;44.316;0.092;2023-12-22T14:16:50;18.43;62.84
76785;SHT30;66893;44.316;0.092;2023-12-22T14:19:15;18.41;62.75
76785;SHT30;66893;44.316;0.092;2023-12-22T14:21:41;18.33;62.76
76785;SHT30;66893;44.316;0.092;2023-12-22T14:24:06;18.31;62.67
76785;SHT30;66893;44.316;0.092;2023-12-22T14:26:32;18.27;62.57
76785;SHT30;66893;44.316;0.092;2023-12-22T14:28:57;18.20;62.61
76785;SHT30;66893;44.316;0.092;2023-12-22T14:31:22;18.16;62.58
76785;SHT30;66893;44.316;0.092;2023-12-22T14:33:48;18.12;62.54
76785;SHT30;66893;44.316;0.092;2023-12-22T14:36:13;18.07;62.53
76785;SHT30;66893;44.316;0.092;2023-12-22T14:38:38;18.04;62.50
76785;SHT30;66893;44.316;0.092;2023-12-22T14:41:04;18.03;62.55
76785;SHT30;66893;44.316;0.092;2023-12-22T14:43:29;17.99;62.61
76785;SHT30;66893;44.316;0.092;2023-12-22T14:45:55;18.03;62.54
76785;SHT30;66893;44.316;0.092;2023-12-22T14:48:20;18.10;62.44
76785;SHT30;66893;44.316;0.092;2023-12-22T14:50:45;18.14;62.37
76785;SHT30;66893;44.316;0.092;2023-12-22T14:53:11;18.18;62.24
76785;SHT30;66893;44.316;0.092;2023-12-22T14:55:36;18.22;62.21
76785;SHT30;66893;44.316;0.092;2023-12-22T14:58:02;18.23;62.10
76785;SHT30;66893;44.316;0.092;2023-12-22T15:00:28;18.23;62.05
76785;SHT30;66893;44.316;0.092;2023-12-22T15:02:54;18.23;62.06
76785;SHT30;66893;44.316;0.092;2023-12-22T15:05:19;18.27;61.99
76785;SHT30;66893;44.316;0.092;2023-12-22T15:07:45;18.23;61.96
76785;SHT30;66893;44.316;0.092;2023-12-22T15:10:10;18.22;61.91
76785;SHT30;66893;44.316;0.092;2023-12-22T15:12:36;18.23;61.86
76785;SHT30;66893;44.316;0.092;2023-12-22T15:15:03;18.18;61.87
76785;SHT30;66893;44.316;0.092;2023-12-22T15:17:29;18.17;61.84
76785;SHT30;66893;44.316;0.092;2023-12-22T15:19:55;18.14;61.83
76785;SHT30;66893;44.316;0.092;2023-12-22T15:22:20;18.13;61.85
76785;SHT30;66893;44.316;0.092;2023-12-22T15:24:47;18.10;61.84
76785;SHT30;66893;44.316;0.092;2023-12-22T15:27:13;18.09;61.90
76785;SHT30;66893;44.316;0.092;2023-12-22T15:29:39;18.10;61.92
76785;SHT30;66893;44.316;0.092;2023-12-22T15:32:04;18.09;61.90
76785;SHT30;66893;44.316;0.092;2023-12-22T15:34:30;18.06;61.90
76785;SHT30;66893;44.316;0.092;2023-12-22T15:36:56;18.07;62.02
76785;SHT30;66893;44.316;0.092;2023-12-22T15:39:22;18.13;61.93
76785;SHT30;66893;44.316;0.092;2023-12-22T15:41:47;18.18;61.93
76785;SHT30;66893;44.316;0.092;2023-12-22T15:44:13;18.24;61.92
76785;SHT30;66893;44.316;0.092;2023-12-22T15:46:39;18.23;61.92
76785;SHT30;66893;44.316;0.092;2023-12-22T15:49:05;18.23;61.90
76785;SHT30;66893;44.316;0.092;2023-12-22T15:51:30;18.22;61.98
76785;SHT30;66893;44.316;0.092;2023-12-22T15:53:55;18.20;62.01
76785;SHT30;66893;44.316;0.092;2023-12-22T15:56:21;18.16;62.12
76785;SHT30;66893;44.316;0.092;2023-12-22T15:58:46;18.14;62.17
76785;SHT30;66893;44.316;0.092;2023-12-22T16:01:12;18.13;62.27
76785;SHT30;66893;44.316;0.092;2023-12-22T16:03:40;18.12;62.34
76785;SHT30;66893;44.316;0.092;2023-12-22T16:06:06;18.10;62.42
76785;SHT30;66893;44.316;0.092;2023-12-22T16:08:31;18.07;62.53
76785;SHT30;66893;44.316;0.092;2023-12-22T16:11:03;18.07;62.60
76785;SHT30;66893;44.316;0.092;2023-12-22T16:13:29;18.06;62.71
76785;SHT30;66893;44.316;0.092;2023-12-22T16:15:56;18.07;62.80
76785;SHT30;66893;44.316;0.092;2023-12-22T16:18:22;18.00;62.91
76785;SHT30;66893;44.316;0.092;2023-12-22T16:20:47;18.00;63.00
76785;SHT30;66893;44.316;0.092;2023-12-22T16:23:13;18.02;63.13
76785;SHT30;66893;44.316;0.092;2023-12-22T16:25:39;17.97;63.21
76785;SHT30;66893;44.316;0.092;2023-12-22T16:28:04;17.99;63.50
76785;SHT30;66893;44.316;0.092;2023-12-22T16:30:30;17.99;63.37
76785;SHT30;66893;44.316;0.092;2023-12-22T16:32:55;17.99;63.44
76785;SHT30;66893;44.316;0.092;2023-12-22T16:35:21;17.96;63.56
76785;SHT30;66893;44.316;0.092;2023-12-22T16:37:46;17.95;63.71
76785;SHT30;66893;44.316;0.092;2023-12-22T16:40:12;17.93;63.82
76785;SHT30;66893;44.316;0.092;2023-12-22T16:42:38;17.93;63.89
76785;SHT30;66893;44.316;0.092;2023-12-22T16:45:05;17.92;63.87
76785;SHT30;66893;44.316;0.092;2023-12-22T16:47:31;17.89;63.96
76785;SHT30;66893;44.316;0.092;2023-12-22T16:49:56;17.87;63.93
76785;SHT30;66893;44.316;0.092;2023-12-22T16:52:22;17.85;63.91
76785;SHT30;66893;44.316;0.092;2023-12-22T16:54:47;17.86;63.90
76785;SHT30;66893;44.316;0.092;2023-12-22T16:57:13;17.81;63.96
76785;SHT30;66893;44.316;0.092;2023-12-22T16:59:38;17.81;63.96
76785;SHT30;66893;44.316;0.092;2023-12-22T17:02:04;17.76;63.99
76785;SHT30;66893;44.316;0.092;2023-12-22T17:04:29;17.75;63.94
76785;SHT30;66893;44.316;0.092;2023-12-22T17:06:55;17.74;63.97
76785;SHT30;66893;44.316;0.092;2023-12-22T17:09:21;17.69;63.98
76785;SHT30;66893;44.316;0.092;2023-12-22T17:11:48;17.69;63.98
76785;SHT30;66893;44.316;0.092;2023-12-22T17:14:13;17.68;63.96
76785;SHT30;66893;44.316;0.092;2023-12-22T17:16:39;17.65;63.98
76785;SHT30;66893;44.316;0.092;2023-12-22T17:19:05;17.64;63.97
76785;SHT30;66893;44.316;0.092;2023-12-22T17:21:30;17.59;63.93
76785;SHT30;66893;44.316;0.092;2023-12-22T17:23:56;17.59;63.94
76785;SHT30;66893;44.316;0.092;2023-12-22T17:26:21;17.58;63.95
76785;SHT30;66893;44.316;0.092;2023-12-22T17:28:47;17.55;63.94
76785;SHT30;66893;44.316;0.092;2023-12-22T17:31:14;17.55;63.90
76785;SHT30;66893;44.316;0.092;2023-12-22T17:33:40;17.54;63.87
76785;SHT30;66893;44.316;0.092;2023-12-22T17:36:06;17.52;63.91
76785;SHT30;66893;44.316;0.092;2023-12-22T17:38:31;17.52;63.89
76785;SHT30;66893;44.316;0.092;2023-12-22T17:40:57;17.50;63.85
76785;SHT30;66893;44.316;0.092;2023-12-22T17:43:22;17.47;63.86
76785;SHT30;66893;44.316;0.092;2023-12-22T17:45:48;17.45;63.87
76785;SHT30;66893;44.316;0.092;2023-12-22T17:48:13;17.45;63.86
76785;SHT30;66893;44.316;0.092;2023-12-22T17:50:39;17.44;63.87
76785;SHT30;66893;44.316;0.092;2023-12-22T17:53:06;17.41;63.85
76785;SHT30;66893;44.316;0.092;2023-12-22T17:55:31;17.41;63.82
76785;SHT30;66893;44.316;0.092;2023-12-22T17:57:57;17.38;63.84
76785;SHT30;66893;44.316;0.092;2023-12-22T18:00:22;17.37;63.84